sensor_id;sensor_type;location;lat;lon;timestamp;P1;durP1;ratioP1;P2;durP2;ratioP2
20846;SDS011;10584;50.854;12.902;2022-10-31T00:01:09;22.20;;;11.60;;
20846;SDS011;10584;50.854;12.902;2022-10-31T00:06:36;24.17;;;11.87;;
20846;SDS011;10584;50.854;12.902;2022-10-31T00:11:49;18.37;;;10.70;;
20846;SDS011;10584;50.854;12.902;2022-10-31T00:17:12;21.70;;;10.97;;
20846;SDS011;10584;50.854;12.902;2022-10-31T00:22:29;18.13;;;10.10;;
20846;SDS011;10584;50.854;12.902;2022-10-31T00:27:52;24.73;;;10.17;;
20846;SDS011;10584;50.854;12.902;2022-10-31T00:33:03;23.63;;;10.43;;
20846;SDS011;10584;50.854;12.902;2022-10-31T00:38:20;23.20;;;9.90;;
20846;SDS011;10584;50.854;12.902;2022-10-31T00:43:42;26.07;;;10.37;;
20846;SDS011;10584;50.854;12.902;2022-10-31T00:48:57;35.17;;;10.80;;
20846;SDS011;10584;50.854;12.902;2022-10-31T00:54:07;26.50;;;10.17;;
20846;SDS011;10584;50.854;12.902;2022-10-31T00:59:21;21.93;;;9.33;;
20846;SDS011;10584;50.854;12.902;2022-10-31T01:04:26;21.23;;;10.13;;
20846;SDS011;10584;50.854;12.902;2022-10-31T01:09:58;21.90;;;9.57;;
20846;SDS011;10584;50.854;12.902;2022-10-31T01:15:02;21.80;;;10.50;;
20846;SDS011;10584;50.854;12.902;2022-10-31T01:20:05;26.27;;;9.73;;
20846;SDS011;10584;50.854;12.902;2022-10-31T01:25:09;20.80;;;9.50;;
20846;SDS011;10584;50.854;12.902;2022-10-31T01:30:12;25.77;;;10.60;;
20846;SDS011;10584;50.854;12.902;2022-10-31T01:35:15;27.73;;;11.30;;
20846;SDS011;10584;50.854;12.902;2022-10-31T01:40:18;26.10;;;11.53;;
20846;SDS011;10584;50.854;12.902;2022-10-31T01:45:20;21.57;;;9.93;;
20846;SDS011;10584;50.854;12.902;2022-10-31T01:50:26;18.57;;;8.20;;
20846;SDS011;10584;50.854;12.902;2022-10-31T01:55:38;19.50;;;7.80;;
20846;SDS011;10584;50.854;12.902;2022-10-31T02:00:53;23.67;;;10.60;;
20846;SDS011;10584;50.854;12.902;2022-10-31T02:06:10;21.37;;;10.30;;
20846;SDS011;10584;50.854;12.902;2022-10-31T02:11:34;19.40;;;9.53;;
20846;SDS011;10584;50.854;12.902;2022-10-31T02:17:00;23.83;;;9.90;;
20846;SDS011;10584;50.854;12.902;2022-10-31T02:44:33;23.77;;;9.33;;
20846;SDS011;10584;50.854;12.902;2022-10-31T02:49:54;16.83;;;8.50;;
20846;SDS011;10584;50.854;12.902;2022-10-31T03:06:00;21.43;;;9.17;;
20846;SDS011;10584;50.854;12.902;2022-10-31T03:11:29;21.20;;;9.57;;
20846;SDS011;10584;50.854;12.902;2022-10-31T03:16:59;17.27;;;8.63;;
20846;SDS011;10584;50.854;12.902;2022-10-31T03:22:34;18.97;;;8.10;;
20846;SDS011;10584;50.854;12.902;2022-10-31T03:27:59;19.33;;;8.37;;
20846;SDS011;10584;50.854;12.902;2022-10-31T03:33:21;19.07;;;8.27;;
20846;SDS011;10584;50.854;12.902;2022-10-31T03:38:58;15.63;;;8.63;;
20846;SDS011;10584;50.854;12.902;2022-10-31T03:44:13;19.60;;;9.23;;
20846;SDS011;10584;50.854;12.902;2022-10-31T03:49:25;15.97;;;8.30;;
20846;SDS011;10584;50.854;12.902;2022-10-31T03:54:49;19.37;;;8.73;;
20846;SDS011;10584;50.854;12.902;2022-10-31T04:00:16;17.60;;;8.93;;
20846;SDS011;10584;50.854;12.902;2022-10-31T04:05:21;23.97;;;8.80;;
20846;SDS011;10584;50.854;12.902;2022-10-31T04:10:46;19.73;;;8.80;;
20846;SDS011;10584;50.854;12.902;2022-10-31T04:16:24;18.90;;;8.90;;
20846;SDS011;10584;50.854;12.902;2022-10-31T04:22:05;23.13;;;8.40;;
20846;SDS011;10584;50.854;12.902;2022-10-31T04:27:21;21.50;;;8.40;;
20846;SDS011;10584;50.854;12.902;2022-10-31T04:32:58;15.60;;;8.43;;
20846;SDS011;10584;50.854;12.902;2022-10-31T04:38:06;19.90;;;7.97;;
20846;SDS011;10584;50.854;12.902;2022-10-31T04:43:22;18.67;;;8.33;;
20846;SDS011;10584;50.854;12.902;2022-10-31T04:48:27;21.33;;;8.73;;
20846;SDS011;10584;50.854;12.902;2022-10-31T04:53:35;15.90;;;8.77;;
20846;SDS011;10584;50.854;12.902;2022-10-31T04:59:01;15.73;;;8.53;;
20846;SDS011;10584;50.854;12.902;2022-10-31T05:04:24;18.63;;;8.50;;
20846;SDS011;10584;50.854;12.902;2022-10-31T05:09:49;16.67;;;8.50;;
20846;SDS011;10584;50.854;12.902;2022-10-31T05:15:18;20.43;;;8.57;;
20846;SDS011;10584;50.854;12.902;2022-10-31T05:20:40;17.37;;;8.63;;
20846;SDS011;10584;50.854;12.902;2022-10-31T05:26:13;17.03;;;8.50;;
20846;SDS011;10584;50.854;12.902;2022-10-31T05:31:30;20.50;;;8.13;;
20846;SDS011;10584;50.854;12.902;2022-10-31T05:37:30;15.83;;;8.53;;
20846;SDS011;10584;50.854;12.902;2022-10-31T05:42:51;17.17;;;9.00;;
20846;SDS011;10584;50.854;12.902;2022-10-31T05:48:24;19.13;;;8.80;;
20846;SDS011;10584;50.854;12.902;2022-10-31T05:54:02;18.07;;;8.60;;
20846;SDS011;10584;50.854;12.902;2022-10-31T05:59:18;15.53;;;8.33;;
20846;SDS011;10584;50.854;12.902;2022-10-31T06:04:35;19.23;;;8.80;;
20846;SDS011;10584;50.854;12.902;2022-10-31T06:09:48;15.57;;;8.20;;
20846;SDS011;10584;50.854;12.902;2022-10-31T06:14:54;18.20;;;8.87;;
20846;SDS011;10584;50.854;12.902;2022-10-31T06:19:57;23.27;;;9.27;;
20846;SDS011;10584;50.854;12.902;2022-10-31T06:25:00;21.47;;;8.47;;
20846;SDS011;10584;50.854;12.902;2022-10-31T06:30:08;15.07;;;8.47;;
20846;SDS011;10584;50.854;12.902;2022-10-31T06:35:11;19.13;;;9.07;;
20846;SDS011;10584;50.854;12.902;2022-10-31T06:40:15;18.17;;;8.87;;
20846;SDS011;10584;50.854;12.902;2022-10-31T06:45:41;17.27;;;8.40;;
20846;SDS011;10584;50.854;12.902;2022-10-31T06:51:11;19.47;;;8.67;;
20846;SDS011;10584;50.854;12.902;2022-10-31T06:56:35;20.77;;;8.93;;
20846;SDS011;10584;50.854;12.902;2022-10-31T07:02:17;18.00;;;8.73;;
20846;SDS011;10584;50.854;12.902;2022-10-31T07:07:25;16.37;;;9.17;;
20846;SDS011;10584;50.854;12.902;2022-10-31T07:12:35;19.00;;;9.40;;
20846;SDS011;10584;50.854;12.902;2022-10-31T07:17:59;20.07;;;9.13;;
20846;SDS011;10584;50.854;12.902;2022-10-31T07:23:13;22.13;;;9.13;;
20846;SDS011;10584;50.854;12.902;2022-10-31T07:28:43;17.17;;;9.43;;
20846;SDS011;10584;50.854;12.902;2022-10-31T07:33:57;21.73;;;9.43;;
20846;SDS011;10584;50.854;12.902;2022-10-31T07:39:26;21.20;;;10.30;;
20846;SDS011;10584;50.854;12.902;2022-10-31T07:44:28;20.50;;;10.40;;
20846;SDS011;10584;50.854;12.902;2022-10-31T07:50:01;21.67;;;10.03;;
20846;SDS011;10584;50.854;12.902;2022-10-31T07:55:35;20.67;;;8.80;;
20846;SDS011;10584;50.854;12.902;2022-10-31T08:00:41;18.90;;;8.83;;
20846;SDS011;10584;50.854;12.902;2022-10-31T08:05:49;18.17;;;8.57;;
20846;SDS011;10584;50.854;12.902;2022-10-31T08:11:40;21.33;;;9.43;;
20846;SDS011;10584;50.854;12.902;2022-10-31T08:16:51;20.50;;;11.00;;
20846;SDS011;10584;50.854;12.902;2022-10-31T08:22:28;19.20;;;9.30;;
20846;SDS011;10584;50.854;12.902;2022-10-31T08:27:56;19.43;;;8.87;;
20846;SDS011;10584;50.854;12.902;2022-10-31T08:33:23;18.83;;;8.10;;
20846;SDS011;10584;50.854;12.902;2022-10-31T08:39:48;19.77;;;8.70;;
20846;SDS011;10584;50.854;12.902;2022-10-31T08:51:57;16.13;;;7.80;;
20846;SDS011;10584;50.854;12.902;2022-10-31T08:57:35;16.27;;;7.73;;
20846;SDS011;10584;50.854;12.902;2022-10-31T09:08:44;15.60;;;7.00;;
20846;SDS011;10584;50.854;12.902;2022-10-31T09:13:47;17.37;;;7.13;;
20846;SDS011;10584;50.854;12.902;2022-10-31T09:19:19;14.43;;;6.50;;
20846;SDS011;10584;50.854;12.902;2022-10-31T09:24:22;11.00;;;6.07;;
20846;SDS011;10584;50.854;12.902;2022-10-31T09:29:26;15.37;;;6.17;;
20846;SDS011;10584;50.854;12.902;2022-10-31T09:34:33;14.40;;;5.70;;
20846;SDS011;10584;50.854;12.902;2022-10-31T09:39:48;18.97;;;6.60;;
20846;SDS011;10584;50.854;12.902;2022-10-31T09:44:59;16.00;;;6.07;;
20846;SDS011;10584;50.854;12.902;2022-10-31T09:50:21;16.37;;;6.10;;
20846;SDS011;10584;50.854;12.902;2022-10-31T09:55:36;16.37;;;5.70;;
20846;SDS011;10584;50.854;12.902;2022-10-31T10:00:44;14.57;;;5.67;;
20846;SDS011;10584;50.854;12.902;2022-10-31T10:05:57;17.60;;;5.97;;
20846;SDS011;10584;50.854;12.902;2022-10-31T10:23:23;13.67;;;6.30;;
20846;SDS011;10584;50.854;12.902;2022-10-31T10:29:17;16.20;;;6.47;;
20846;SDS011;10584;50.854;12.902;2022-10-31T10:34:34;20.43;;;7.30;;
20846;SDS011;10584;50.854;12.902;2022-10-31T10:39:43;16.83;;;6.60;;
20846;SDS011;10584;50.854;12.902;2022-10-31T10:44:49;17.80;;;6.70;;
20846;SDS011;10584;50.854;12.902;2022-10-31T10:50:18;15.03;;;6.30;;
20846;SDS011;10584;50.854;12.902;2022-10-31T11:01:24;16.17;;;5.70;;
20846;SDS011;10584;50.854;12.902;2022-10-31T11:06:30;16.27;;;6.40;;
20846;SDS011;10584;50.854;12.902;2022-10-31T11:11:56;14.97;;;5.20;;
20846;SDS011;10584;50.854;12.902;2022-10-31T11:23:00;11.60;;;4.80;;
20846;SDS011;10584;50.854;12.902;2022-10-31T11:28:32;16.90;;;5.13;;
20846;SDS011;10584;50.854;12.902;2022-10-31T11:33:57;13.13;;;4.93;;
20846;SDS011;10584;50.854;12.902;2022-10-31T11:39:22;12.27;;;4.57;;
20846;SDS011;10584;50.854;12.902;2022-10-31T11:44:26;11.57;;;4.60;;
20846;SDS011;10584;50.854;12.902;2022-10-31T11:49:32;11.37;;;4.40;;
20846;SDS011;10584;50.854;12.902;2022-10-31T11:54:41;12.77;;;4.33;;
20846;SDS011;10584;50.854;12.902;2022-10-31T12:05:35;13.67;;;4.70;;
20846;SDS011;10584;50.854;12.902;2022-10-31T12:22:14;11.33;;;4.30;;
20846;SDS011;10584;50.854;12.902;2022-10-31T12:33:20;9.53;;;4.17;;
20846;SDS011;10584;50.854;12.902;2022-10-31T12:49:56;11.37;;;4.27;;
20846;SDS011;10584;50.854;12.902;2022-10-31T13:00:36;10.10;;;4.30;;
20846;SDS011;10584;50.854;12.902;2022-10-31T13:05:48;14.97;;;4.43;;
20846;SDS011;10584;50.854;12.902;2022-10-31T13:11:19;9.80;;;4.30;;
20846;SDS011;10584;50.854;12.902;2022-10-31T13:16:33;10.97;;;4.47;;
20846;SDS011;10584;50.854;12.902;2022-10-31T13:22:20;11.90;;;4.47;;
20846;SDS011;10584;50.854;12.902;2022-10-31T13:33:23;11.53;;;4.93;;
20846;SDS011;10584;50.854;12.902;2022-10-31T13:45:17;11.00;;;5.03;;
20846;SDS011;10584;50.854;12.902;2022-10-31T13:50:26;24.23;;;5.53;;
20846;SDS011;10584;50.854;12.902;2022-10-31T14:00:43;17.30;;;6.50;;
20846;SDS011;10584;50.854;12.902;2022-10-31T14:06:02;14.90;;;6.33;;
20846;SDS011;10584;50.854;12.902;2022-10-31T14:11:23;19.13;;;8.50;;
20846;SDS011;10584;50.854;12.902;2022-10-31T14:16:45;17.80;;;7.00;;
20846;SDS011;10584;50.854;12.902;2022-10-31T14:22:18;10.33;;;6.03;;
20846;SDS011;10584;50.854;12.902;2022-10-31T14:27:32;19.17;;;7.80;;
20846;SDS011;10584;50.854;12.902;2022-10-31T14:32:55;19.13;;;7.70;;
20846;SDS011;10584;50.854;12.902;2022-10-31T14:39:02;17.20;;;8.30;;
20846;SDS011;10584;50.854;12.902;2022-10-31T14:54:50;20.93;;;8.10;;
20846;SDS011;10584;50.854;12.902;2022-10-31T14:59:56;19.07;;;7.23;;
20846;SDS011;10584;50.854;12.902;2022-10-31T15:05:14;21.40;;;7.03;;
20846;SDS011;10584;50.854;12.902;2022-10-31T15:10:44;19.33;;;6.50;;
20846;SDS011;10584;50.854;12.902;2022-10-31T15:15:48;16.07;;;6.93;;
20846;SDS011;10584;50.854;12.902;2022-10-31T15:21:03;15.00;;;7.63;;
20846;SDS011;10584;50.854;12.902;2022-10-31T15:26:33;15.00;;;7.00;;
20846;SDS011;10584;50.854;12.902;2022-10-31T15:32:00;13.97;;;7.90;;
20846;SDS011;10584;50.854;12.902;2022-10-31T15:37:43;25.00;;;12.17;;
20846;SDS011;10584;50.854;12.902;2022-10-31T15:42:59;17.03;;;7.97;;
20846;SDS011;10584;50.854;12.902;2022-10-31T15:48:22;17.03;;;7.93;;
20846;SDS011;10584;50.854;12.902;2022-10-31T15:53:52;13.70;;;7.33;;
20846;SDS011;10584;50.854;12.902;2022-10-31T15:59:05;12.40;;;7.57;;
20846;SDS011;10584;50.854;12.902;2022-10-31T16:04:29;19.63;;;8.10;;
20846;SDS011;10584;50.854;12.902;2022-10-31T16:10:05;21.73;;;8.77;;
20846;SDS011;10584;50.854;12.902;2022-10-31T16:15:25;24.93;;;13.10;;
20846;SDS011;10584;50.854;12.902;2022-10-31T16:20:29;24.57;;;10.83;;
20846;SDS011;10584;50.854;12.902;2022-10-31T16:25:36;17.97;;;9.80;;
20846;SDS011;10584;50.854;12.902;2022-10-31T16:30:44;21.33;;;10.73;;
20846;SDS011;10584;50.854;12.902;2022-10-31T16:35:57;18.30;;;10.50;;
20846;SDS011;10584;50.854;12.902;2022-10-31T16:41:44;25.73;;;11.50;;
20846;SDS011;10584;50.854;12.902;2022-10-31T16:47:13;21.37;;;11.87;;
20846;SDS011;10584;50.854;12.902;2022-10-31T16:52:42;21.93;;;10.43;;
20846;SDS011;10584;50.854;12.902;2022-10-31T16:58:24;27.17;;;14.50;;
20846;SDS011;10584;50.854;12.902;2022-10-31T17:03:42;29.07;;;13.50;;
20846;SDS011;10584;50.854;12.902;2022-10-31T17:09:10;23.20;;;12.93;;
20846;SDS011;10584;50.854;12.902;2022-10-31T17:14:25;35.33;;;18.13;;
20846;SDS011;10584;50.854;12.902;2022-10-31T17:19:29;34.53;;;17.03;;
20846;SDS011;10584;50.854;12.902;2022-10-31T17:24:36;29.60;;;14.13;;
20846;SDS011;10584;50.854;12.902;2022-10-31T17:29:39;24.00;;;12.47;;
20846;SDS011;10584;50.854;12.902;2022-10-31T17:34:42;20.77;;;12.07;;
20846;SDS011;10584;50.854;12.902;2022-10-31T17:39:45;28.10;;;13.70;;
20846;SDS011;10584;50.854;12.902;2022-10-31T17:44:48;27.60;;;14.07;;
20846;SDS011;10584;50.854;12.902;2022-10-31T17:49:51;30.23;;;14.63;;
20846;SDS011;10584;50.854;12.902;2022-10-31T17:54:54;33.90;;;18.67;;
20846;SDS011;10584;50.854;12.902;2022-10-31T17:59:56;35.27;;;19.60;;
20846;SDS011;10584;50.854;12.902;2022-10-31T18:05:02;47.93;;;22.80;;
20846;SDS011;10584;50.854;12.902;2022-10-31T18:10:17;43.47;;;17.37;;
20846;SDS011;10584;50.854;12.902;2022-10-31T18:15:20;34.20;;;15.50;;
20846;SDS011;10584;50.854;12.902;2022-10-31T18:20:22;33.80;;;15.77;;
20846;SDS011;10584;50.854;12.902;2022-10-31T18:25:25;27.97;;;14.90;;
20846;SDS011;10584;50.854;12.902;2022-10-31T18:30:28;39.37;;;16.97;;
20846;SDS011;10584;50.854;12.902;2022-10-31T18:35:31;25.33;;;13.90;;
20846;SDS011;10584;50.854;12.902;2022-10-31T18:40:35;29.23;;;13.90;;
20846;SDS011;10584;50.854;12.902;2022-10-31T18:45:38;30.60;;;13.90;;
20846;SDS011;10584;50.854;12.902;2022-10-31T18:50:53;23.13;;;12.37;;
20846;SDS011;10584;50.854;12.902;2022-10-31T18:56:23;28.73;;;14.60;;
20846;SDS011;10584;50.854;12.902;2022-10-31T19:01:53;26.20;;;14.37;;
20846;SDS011;10584;50.854;12.902;2022-10-31T19:07:15;25.13;;;13.70;;
20846;SDS011;10584;50.854;12.902;2022-10-31T19:12:26;33.87;;;16.27;;
20846;SDS011;10584;50.854;12.902;2022-10-31T19:17:50;34.20;;;15.33;;
20846;SDS011;10584;50.854;12.902;2022-10-31T19:23:02;24.20;;;12.97;;
20846;SDS011;10584;50.854;12.902;2022-10-31T19:28:18;24.70;;;12.23;;
20846;SDS011;10584;50.854;12.902;2022-10-31T19:33:27;23.27;;;11.87;;
20846;SDS011;10584;50.854;12.902;2022-10-31T19:38:47;24.80;;;12.93;;
20846;SDS011;10584;50.854;12.902;2022-10-31T19:43:58;26.70;;;13.03;;
20846;SDS011;10584;50.854;12.902;2022-10-31T19:49:10;24.93;;;11.83;;
20846;SDS011;10584;50.854;12.902;2022-10-31T19:54:14;29.43;;;12.30;;
20846;SDS011;10584;50.854;12.902;2022-10-31T19:59:17;22.83;;;12.00;;
20846;SDS011;10584;50.854;12.902;2022-10-31T20:04:24;27.33;;;12.17;;
20846;SDS011;10584;50.854;12.902;2022-10-31T20:09:43;26.90;;;11.93;;
20846;SDS011;10584;50.854;12.902;2022-10-31T20:15:05;26.27;;;11.47;;
20846;SDS011;10584;50.854;12.902;2022-10-31T20:20:08;21.13;;;11.03;;
20846;SDS011;10584;50.854;12.902;2022-10-31T20:25:11;21.97;;;11.03;;
20846;SDS011;10584;50.854;12.902;2022-10-31T20:30:14;22.83;;;10.97;;
20846;SDS011;10584;50.854;12.902;2022-10-31T20:35:17;26.03;;;11.83;;
20846;SDS011;10584;50.854;12.902;2022-10-31T20:40:20;25.00;;;10.73;;
20846;SDS011;10584;50.854;12.902;2022-10-31T20:45:23;20.13;;;9.27;;
20846;SDS011;10584;50.854;12.902;2022-10-31T20:50:27;19.70;;;9.40;;
20846;SDS011;10584;50.854;12.902;2022-10-31T20:55:30;25.50;;;9.50;;
20846;SDS011;10584;50.854;12.902;2022-10-31T21:00:32;24.00;;;9.67;;
20846;SDS011;10584;50.854;12.902;2022-10-31T21:05:45;23.27;;;9.23;;
20846;SDS011;10584;50.854;12.902;2022-10-31T21:11:33;23.67;;;9.77;;
20846;SDS011;10584;50.854;12.902;2022-10-31T21:16:59;25.30;;;10.50;;
20846;SDS011;10584;50.854;12.902;2022-10-31T21:22:22;23.43;;;10.57;;
20846;SDS011;10584;50.854;12.902;2022-10-31T21:27:37;24.30;;;10.93;;
20846;SDS011;10584;50.854;12.902;2022-10-31T21:32:54;25.30;;;11.97;;
20846;SDS011;10584;50.854;12.902;2022-10-31T21:38:08;21.27;;;10.80;;
20846;SDS011;10584;50.854;12.902;2022-10-31T21:43:28;25.03;;;10.67;;
20846;SDS011;10584;50.854;12.902;2022-10-31T21:48:47;23.30;;;10.33;;
20846;SDS011;10584;50.854;12.902;2022-10-31T21:53:56;23.40;;;9.90;;
20846;SDS011;10584;50.854;12.902;2022-10-31T21:59:18;20.23;;;9.07;;
20846;SDS011;10584;50.854;12.902;2022-10-31T22:04:24;24.07;;;9.57;;
20846;SDS011;10584;50.854;12.902;2022-10-31T22:09:47;19.93;;;9.37;;
20846;SDS011;10584;50.854;12.902;2022-10-31T22:14:50;20.07;;;9.87;;
20846;SDS011;10584;50.854;12.902;2022-10-31T22:19:53;20.37;;;9.50;;
20846;SDS011;10584;50.854;12.902;2022-10-31T22:24:55;19.47;;;9.50;;
20846;SDS011;10584;50.854;12.902;2022-10-31T22:29:58;22.83;;;9.40;;
20846;SDS011;10584;50.854;12.902;2022-10-31T22:35:01;28.53;;;9.80;;
20846;SDS011;10584;50.854;12.902;2022-10-31T22:40:04;22.77;;;9.80;;
20846;SDS011;10584;50.854;12.902;2022-10-31T22:45:07;17.20;;;9.00;;
20846;SDS011;10584;50.854;12.902;2022-10-31T22:50:11;24.23;;;9.60;;
20846;SDS011;10584;50.854;12.902;2022-10-31T22:55:14;22.83;;;9.63;;
20846;SDS011;10584;50.854;12.902;2022-10-31T23:00:17;24.97;;;11.03;;
20846;SDS011;10584;50.854;12.902;2022-10-31T23:05:20;26.03;;;11.33;;
20846;SDS011;10584;50.854;12.902;2022-10-31T23:10:23;30.77;;;12.13;;
20846;SDS011;10584;50.854;12.902;2022-10-31T23:15:35;28.10;;;12.17;;
20846;SDS011;10584;50.854;12.902;2022-10-31T23:20:38;24.00;;;11.87;;
20846;SDS011;10584;50.854;12.902;2022-10-31T23:25:46;28.70;;;12.33;;
20846;SDS011;10584;50.854;12.902;2022-10-31T23:31:07;30.27;;;11.67;;
20846;SDS011;10584;50.854;12.902;2022-10-31T23:36:10;27.57;;;12.07;;
20846;SDS011;10584;50.854;12.902;2022-10-31T23:41:13;32.30;;;11.73;;
20846;SDS011;10584;50.854;12.902;2022-10-31T23:46:16;22.57;;;9.80;;
20846;SDS011;10584;50.854;12.902;2022-10-31T23:51:19;21.57;;;9.10;;
20846;SDS011;10584;50.854;12.902;2022-10-31T23:56:22;21.17;;;8.93;;
